sensor_id;sensor_type;location;lat;lon;timestamp;pressure;altitude;pressure_sealevel;temperature;humidity
15817;BME280;8009;50.070;8.232;2023-01-19T00:41:05;98929.84;;;-0.91;73.62
15817;BME280;8009;50.070;8.232;2023-01-19T00:46:48;98923.25;;;-0.45;72.20
15817;BME280;8009;50.070;8.232;2023-01-19T00:49:19;98928.69;;;-0.48;72.08
15817;BME280;8009;50.070;8.232;2023-01-19T00:51:48;98935.06;;;-0.71;72.76
15817;BME280;8009;50.070;8.232;2023-01-19T00:54:31;98933.34;;;-0.53;71.66
15817;BME280;8009;50.070;8.232;2023-01-19T01:00:20;98927.53;;;-0.61;72.75
15817;BME280;8009;50.070;8.232;2023-01-19T01:02:52;98927.25;;;-0.55;72.07
15817;BME280;8009;50.070;8.232;2023-01-19T01:14:53;98950.09;;;-0.90;73.59
15817;BME280;8009;50.070;8.232;2023-01-19T01:27:03;98963.88;;;-1.42;76.17
15817;BME280;8009;50.070;8.232;2023-01-19T01:32:57;98960.28;;;-0.81;73.48
15817;BME280;8009;50.070;8.232;2023-01-19T01:35:25;98957.50;;;-0.40;72.39
15817;BME280;8009;50.070;8.232;2023-01-19T01:38:18;98964.72;;;-0.82;73.30
15817;BME280;8009;50.070;8.232;2023-01-19T01:40:47;98955.44;;;-0.71;72.85
15817;BME280;8009;50.070;8.232;2023-01-19T01:43:39;98956.19;;;-0.51;71.63
15817;BME280;8009;50.070;8.232;2023-01-19T01:49:56;98975.03;;;-1.15;74.46
15817;BME280;8009;50.070;8.232;2023-01-19T01:52:28;98973.03;;;-0.33;71.52
15817;BME280;8009;50.070;8.232;2023-01-19T02:04:34;98988.22;;;-0.74;73.84
15817;BME280;8009;50.070;8.232;2023-01-19T02:07:42;98985.56;;;-0.93;74.26
15817;BME280;8009;50.070;8.232;2023-01-19T02:10:25;98987.00;;;-0.86;73.69
15817;BME280;8009;50.070;8.232;2023-01-19T02:13:24;98977.63;;;-0.36;71.64
15817;BME280;8009;50.070;8.232;2023-01-19T02:15:55;98977.00;;;-0.41;71.64
15817;BME280;8009;50.070;8.232;2023-01-19T02:18:33;98978.97;;;-0.46;71.98
15817;BME280;8009;50.070;8.232;2023-01-19T02:21:11;98967.13;;;-0.20;71.33
15817;BME280;8009;50.070;8.232;2023-01-19T03:18:44;98954.50;;;-0.15;72.22
15817;BME280;8009;50.070;8.232;2023-01-19T03:21:20;98956.16;;;-0.68;73.82
15817;BME280;8009;50.070;8.232;2023-01-19T03:27:04;98956.16;;;-0.49;73.85
15817;BME280;8009;50.070;8.232;2023-01-19T03:55:07;98944.72;;;0.21;71.14
15817;BME280;8009;50.070;8.232;2023-01-19T03:57:36;98948.19;;;0.23;71.15
15817;BME280;8009;50.070;8.232;2023-01-19T04:00:06;98951.69;;;0.41;70.62
15817;BME280;8009;50.070;8.232;2023-01-19T04:02:35;98951.06;;;0.36;71.38
15817;BME280;8009;50.070;8.232;2023-01-19T04:05:29;98961.78;;;0.35;70.99
15817;BME280;8009;50.070;8.232;2023-01-19T04:11:31;98967.78;;;0.21;72.05
15817;BME280;8009;50.070;8.232;2023-01-19T04:14:00;98961.59;;;0.20;71.62
15817;BME280;8009;50.070;8.232;2023-01-19T04:16:37;98963.59;;;-0.02;72.55
15817;BME280;8009;50.070;8.232;2023-01-19T04:19:18;98959.66;;;0.24;71.56
15817;BME280;8009;50.070;8.232;2023-01-19T04:37:48;98960.91;;;0.52;71.52
15817;BME280;8009;50.070;8.232;2023-01-19T04:40:16;98970.13;;;0.44;71.18
15817;BME280;8009;50.070;8.232;2023-01-19T04:42:45;98968.31;;;0.28;71.01
15817;BME280;8009;50.070;8.232;2023-01-19T04:45:14;98970.81;;;0.48;70.85
15817;BME280;8009;50.070;8.232;2023-01-19T04:47:42;98959.44;;;0.46;71.23
15817;BME280;8009;50.070;8.232;2023-01-19T04:50:11;98973.78;;;0.59;70.18
15817;BME280;8009;50.070;8.232;2023-01-19T04:52:40;98973.63;;;0.45;71.15
15817;BME280;8009;50.070;8.232;2023-01-19T04:55:11;98975.75;;;0.38;71.41
15817;BME280;8009;50.070;8.232;2023-01-19T04:57:56;98964.59;;;0.32;71.52
15817;BME280;8009;50.070;8.232;2023-01-19T05:45:25;98983.63;;;0.92;71.33
15817;BME280;8009;50.070;8.232;2023-01-19T05:47:54;98985.19;;;0.79;71.68
15817;BME280;8009;50.070;8.232;2023-01-19T05:50:22;98988.78;;;0.60;72.35
15817;BME280;8009;50.070;8.232;2023-01-19T06:09:25;99018.56;;;0.67;73.72
15817;BME280;8009;50.070;8.232;2023-01-19T06:11:58;99021.00;;;0.89;72.53
15817;BME280;8009;50.070;8.232;2023-01-19T06:14:28;99015.41;;;1.11;72.15
15817;BME280;8009;50.070;8.232;2023-01-19T06:16:56;99014.38;;;1.13;71.67
15817;BME280;8009;50.070;8.232;2023-01-19T06:35:17;99036.84;;;1.08;73.22
15817;BME280;8009;50.070;8.232;2023-01-19T06:44:07;99031.47;;;1.25;73.15
15817;BME280;8009;50.070;8.232;2023-01-19T06:46:35;99031.44;;;1.42;71.90
15817;BME280;8009;50.070;8.232;2023-01-19T06:49:03;99041.31;;;1.56;71.27
15817;BME280;8009;50.070;8.232;2023-01-19T06:51:35;99041.25;;;1.25;72.45
15817;BME280;8009;50.070;8.232;2023-01-19T06:54:04;99037.75;;;1.57;71.82
15817;BME280;8009;50.070;8.232;2023-01-19T06:56:33;99028.03;;;1.56;71.48
15817;BME280;8009;50.070;8.232;2023-01-19T06:59:04;99034.50;;;1.68;71.34
15817;BME280;8009;50.070;8.232;2023-01-19T07:01:34;99032.88;;;1.65;71.78
15817;BME280;8009;50.070;8.232;2023-01-19T07:04:02;99042.56;;;1.33;72.38
15817;BME280;8009;50.070;8.232;2023-01-19T07:06:33;99034.84;;;1.29;71.83
15817;BME280;8009;50.070;8.232;2023-01-19T07:09:13;99034.75;;;0.97;74.05
15817;BME280;8009;50.070;8.232;2023-01-19T07:12:15;99035.19;;;1.05;73.58
15817;BME280;8009;50.070;8.232;2023-01-19T07:14:44;99041.41;;;1.21;72.51
15817;BME280;8009;50.070;8.232;2023-01-19T07:17:13;99031.88;;;1.35;71.94
15817;BME280;8009;50.070;8.232;2023-01-19T07:19:42;99034.78;;;1.30;72.03
15817;BME280;8009;50.070;8.232;2023-01-19T07:22:10;99035.00;;;1.26;71.72
15817;BME280;8009;50.070;8.232;2023-01-19T07:24:41;99044.25;;;1.18;72.27
15817;BME280;8009;50.070;8.232;2023-01-19T07:27:09;99045.63;;;1.26;72.11
15817;BME280;8009;50.070;8.232;2023-01-19T07:29:41;99037.44;;;1.13;72.11
15817;BME280;8009;50.070;8.232;2023-01-19T07:32:09;99039.22;;;1.30;72.12
15817;BME280;8009;50.070;8.232;2023-01-19T07:34:38;99041.91;;;1.12;72.54
15817;BME280;8009;50.070;8.232;2023-01-19T07:37:07;99044.25;;;1.18;72.69
15817;BME280;8009;50.070;8.232;2023-01-19T07:39:37;99044.66;;;1.11;72.68
15817;BME280;8009;50.070;8.232;2023-01-19T07:42:08;99034.84;;;1.29;72.50
15817;BME280;8009;50.070;8.232;2023-01-19T07:44:40;99035.50;;;1.16;72.76
15817;BME280;8009;50.070;8.232;2023-01-19T07:47:09;99031.47;;;1.25;72.69
15817;BME280;8009;50.070;8.232;2023-01-19T07:49:38;99025.16;;;1.10;73.13
15817;BME280;8009;50.070;8.232;2023-01-19T07:52:07;99021.13;;;1.03;73.14
15817;BME280;8009;50.070;8.232;2023-01-19T07:54:38;99036.84;;;0.90;73.69
15817;BME280;8009;50.070;8.232;2023-01-19T07:57:09;99038.16;;;1.16;73.22
15817;BME280;8009;50.070;8.232;2023-01-19T07:59:37;99044.88;;;1.24;72.25
15817;BME280;8009;50.070;8.232;2023-01-19T08:02:07;99051.53;;;1.15;73.07
15817;BME280;8009;50.070;8.232;2023-01-19T08:04:36;99050.03;;;1.27;72.51
15817;BME280;8009;50.070;8.232;2023-01-19T08:07:04;99052.91;;;1.22;72.62
15817;BME280;8009;50.070;8.232;2023-01-19T08:09:33;99059.72;;;1.28;72.17
15817;BME280;8009;50.070;8.232;2023-01-19T08:12:04;99055.16;;;1.30;72.18
15817;BME280;8009;50.070;8.232;2023-01-19T08:14:37;99047.38;;;1.27;72.88
15817;BME280;8009;50.070;8.232;2023-01-19T08:17:17;99051.03;;;1.24;72.74
15817;BME280;8009;50.070;8.232;2023-01-19T08:19:46;99051.03;;;1.41;72.11
15817;BME280;8009;50.070;8.232;2023-01-19T08:22:14;99063.16;;;1.30;72.84
15817;BME280;8009;50.070;8.232;2023-01-19T08:24:42;99055.03;;;1.49;72.31
15817;BME280;8009;50.070;8.232;2023-01-19T08:27:11;99058.31;;;1.38;73.18
15817;BME280;8009;50.070;8.232;2023-01-19T08:29:42;99063.78;;;1.17;74.04
15817;BME280;8009;50.070;8.232;2023-01-19T08:32:11;99058.72;;;1.30;73.47
15817;BME280;8009;50.070;8.232;2023-01-19T08:34:39;99057.50;;;1.53;73.03
15817;BME280;8009;50.070;8.232;2023-01-19T08:37:08;99063.78;;;1.68;72.84
15817;BME280;8009;50.070;8.232;2023-01-19T08:39:36;99066.16;;;1.24;74.79
15817;BME280;8009;50.070;8.232;2023-01-19T08:42:05;99073.06;;;1.77;72.63
15817;BME280;8009;50.070;8.232;2023-01-19T08:44:36;99079.94;;;1.81;72.32
15817;BME280;8009;50.070;8.232;2023-01-19T08:47:07;99074.31;;;2.03;72.47
15817;BME280;8009;50.070;8.232;2023-01-19T08:49:36;99072.91;;;1.95;72.64
15817;BME280;8009;50.070;8.232;2023-01-19T08:52:05;99076.78;;;2.22;73.04
15817;BME280;8009;50.070;8.232;2023-01-19T08:54:34;99077.91;;;2.33;71.93
15817;BME280;8009;50.070;8.232;2023-01-19T08:57:03;99071.94;;;2.44;71.73
15817;BME280;8009;50.070;8.232;2023-01-19T08:59:33;99071.63;;;2.34;72.21
15817;BME280;8009;50.070;8.232;2023-01-19T09:02:02;99065.06;;;2.56;71.52
15817;BME280;8009;50.070;8.232;2023-01-19T09:04:37;99064.13;;;2.57;71.78
15817;BME280;8009;50.070;8.232;2023-01-19T09:07:05;99069.81;;;2.81;71.05
15817;BME280;8009;50.070;8.232;2023-01-19T09:09:35;99077.31;;;2.74;71.62
15817;BME280;8009;50.070;8.232;2023-01-19T09:12:07;99078.66;;;3.11;70.42
15817;BME280;8009;50.070;8.232;2023-01-19T09:14:36;99074.34;;;2.64;71.12
15817;BME280;8009;50.070;8.232;2023-01-19T09:17:06;99079.53;;;2.82;71.21
15817;BME280;8009;50.070;8.232;2023-01-19T09:19:37;99071.94;;;2.90;70.89
15817;BME280;8009;50.070;8.232;2023-01-19T09:22:06;99073.94;;;2.86;71.04
15817;BME280;8009;50.070;8.232;2023-01-19T09:27:11;99074.41;;;2.79;71.32
15817;BME280;8009;50.070;8.232;2023-01-19T09:29:39;99077.25;;;2.76;71.45
15817;BME280;8009;50.070;8.232;2023-01-19T09:32:14;99076.16;;;2.94;70.81
15817;BME280;8009;50.070;8.232;2023-01-19T09:39:55;99070.31;;;3.17;70.51
15817;BME280;8009;50.070;8.232;2023-01-19T09:42:32;99082.13;;;2.83;71.54
15817;BME280;8009;50.070;8.232;2023-01-19T09:45:05;99074.50;;;3.22;70.75
15817;BME280;8009;50.070;8.232;2023-01-19T09:47:35;99083.97;;;3.41;69.17
15817;BME280;8009;50.070;8.232;2023-01-19T09:50:12;99086.84;;;3.08;70.69
15817;BME280;8009;50.070;8.232;2023-01-19T09:52:48;99080.41;;;3.27;70.42
15817;BME280;8009;50.070;8.232;2023-01-19T09:57:57;99094.28;;;3.03;70.55
15817;BME280;8009;50.070;8.232;2023-01-19T10:00:26;99096.38;;;2.98;70.78
15817;BME280;8009;50.070;8.232;2023-01-19T10:03:00;99086.72;;;3.26;70.41
15817;BME280;8009;50.070;8.232;2023-01-19T10:05:41;99089.88;;;3.32;70.58
15817;BME280;8009;50.070;8.232;2023-01-19T10:08:18;99102.00;;;3.08;71.94
15817;BME280;8009;50.070;8.232;2023-01-19T10:10:51;99098.69;;;3.18;71.96
15817;BME280;8009;50.070;8.232;2023-01-19T10:13:34;99099.22;;;2.95;72.33
15817;BME280;8009;50.070;8.232;2023-01-19T10:16:18;99101.91;;;3.09;74.42
15817;BME280;8009;50.070;8.232;2023-01-19T10:18:56;99101.47;;;2.87;73.86
15817;BME280;8009;50.070;8.232;2023-01-19T11:02:53;99091.59;;;3.33;75.25
15817;BME280;8009;50.070;8.232;2023-01-19T11:05:25;99093.88;;;2.95;76.23
15817;BME280;8009;50.070;8.232;2023-01-19T11:07:55;99095.81;;;3.07;76.33
15817;BME280;8009;50.070;8.232;2023-01-19T11:10:27;99090.56;;;3.36;75.55
15817;BME280;8009;50.070;8.232;2023-01-19T11:12:58;99090.50;;;3.22;75.80
15817;BME280;8009;50.070;8.232;2023-01-19T11:15:42;99095.06;;;2.89;77.02
15817;BME280;8009;50.070;8.232;2023-01-19T11:18:38;99105.34;;;3.11;77.04
15817;BME280;8009;50.070;8.232;2023-01-19T11:21:15;99096.81;;;2.75;77.51
15817;BME280;8009;50.070;8.232;2023-01-19T11:23:49;99091.22;;;2.95;76.88
15817;BME280;8009;50.070;8.232;2023-01-19T11:26:24;99090.94;;;3.00;77.07
15817;BME280;8009;50.070;8.232;2023-01-19T11:29:01;99080.69;;;3.22;76.39
15817;BME280;8009;50.070;8.232;2023-01-19T11:31:37;99084.91;;;3.26;76.46
15817;BME280;8009;50.070;8.232;2023-01-19T11:34:37;99083.88;;;3.43;75.94
15817;BME280;8009;50.070;8.232;2023-01-19T11:37:25;99087.66;;;3.39;76.05
15817;BME280;8009;50.070;8.232;2023-01-19T11:39:56;99087.50;;;3.42;75.98
15817;BME280;8009;50.070;8.232;2023-01-19T11:42:29;99099.25;;;3.09;77.14
15817;BME280;8009;50.070;8.232;2023-01-19T11:45:05;99088.72;;;3.36;76.69
15817;BME280;8009;50.070;8.232;2023-01-19T11:47:39;99097.78;;;3.04;77.36
15817;BME280;8009;50.070;8.232;2023-01-19T11:50:21;99096.94;;;3.03;77.18
15817;BME280;8009;50.070;8.232;2023-01-19T11:52:54;99098.41;;;2.93;78.66
15817;BME280;8009;50.070;8.232;2023-01-19T11:55:32;99094.16;;;3.35;77.18
15817;BME280;8009;50.070;8.232;2023-01-19T11:58:05;99086.78;;;3.24;76.86
15817;BME280;8009;50.070;8.232;2023-01-19T12:00:35;99086.81;;;3.38;77.87
15817;BME280;8009;50.070;8.232;2023-01-19T12:03:12;99088.16;;;3.46;76.28
15817;BME280;8009;50.070;8.232;2023-01-19T12:05:46;99087.56;;;3.26;75.86
15817;BME280;8009;50.070;8.232;2023-01-19T12:08:22;99082.91;;;3.58;75.63
15817;BME280;8009;50.070;8.232;2023-01-19T12:10:56;99079.72;;;3.82;74.55
15817;BME280;8009;50.070;8.232;2023-01-19T12:13:26;99086.19;;;3.63;75.20
15817;BME280;8009;50.070;8.232;2023-01-19T12:16:03;99083.78;;;3.73;75.65
15817;BME280;8009;50.070;8.232;2023-01-19T12:18:38;99080.63;;;3.81;73.66
15817;BME280;8009;50.070;8.232;2023-01-19T12:21:10;99081.78;;;3.62;74.55
15817;BME280;8009;50.070;8.232;2023-01-19T12:23:45;99081.97;;;3.74;74.61
15817;BME280;8009;50.070;8.232;2023-01-19T12:26:25;99073.03;;;4.30;72.36
15817;BME280;8009;50.070;8.232;2023-01-19T12:28:59;99074.94;;;3.73;73.07
15817;BME280;8009;50.070;8.232;2023-01-19T12:31:31;99074.63;;;3.77;73.07
15817;BME280;8009;50.070;8.232;2023-01-19T12:34:27;99078.06;;;3.94;72.92
15817;BME280;8009;50.070;8.232;2023-01-19T12:37:05;99069.97;;;3.66;73.26
15817;BME280;8009;50.070;8.232;2023-01-19T12:39:46;99079.28;;;4.02;73.16
15817;BME280;8009;50.070;8.232;2023-01-19T12:42:16;99076.25;;;3.65;73.12
15817;BME280;8009;50.070;8.232;2023-01-19T12:44:45;99070.81;;;3.96;73.18
15817;BME280;8009;50.070;8.232;2023-01-19T12:47:19;99068.63;;;4.02;73.39
15817;BME280;8009;50.070;8.232;2023-01-19T12:49:51;99074.53;;;3.64;74.82
15817;BME280;8009;50.070;8.232;2023-01-19T12:52:39;99076.44;;;3.91;74.14
15817;BME280;8009;50.070;8.232;2023-01-19T12:55:20;99073.41;;;3.69;72.35
15817;BME280;8009;50.070;8.232;2023-01-19T12:57:57;99073.38;;;3.54;73.42
15817;BME280;8009;50.070;8.232;2023-01-19T13:00:32;99069.88;;;3.68;73.30
15817;BME280;8009;50.070;8.232;2023-01-19T13:06:08;99076.31;;;4.07;71.84
15817;BME280;8009;50.070;8.232;2023-01-19T13:09:00;99079.16;;;4.18;71.81
15817;BME280;8009;50.070;8.232;2023-01-19T13:11:28;99077.03;;;3.82;71.26
15817;BME280;8009;50.070;8.232;2023-01-19T13:17:26;99069.41;;;3.90;72.72
15817;BME280;8009;50.070;8.232;2023-01-19T13:23:16;99074.56;;;3.79;71.55
15817;BME280;8009;50.070;8.232;2023-01-19T13:25:53;99075.47;;;4.06;72.32
15817;BME280;8009;50.070;8.232;2023-01-19T13:28:31;99079.84;;;4.22;71.11
15817;BME280;8009;50.070;8.232;2023-01-19T13:31:01;99081.91;;;4.31;70.09
15817;BME280;8009;50.070;8.232;2023-01-19T13:33:37;99084.56;;;3.89;71.53
15817;BME280;8009;50.070;8.232;2023-01-19T13:36:18;99081.25;;;4.27;70.00
15817;BME280;8009;50.070;8.232;2023-01-19T13:38:48;99076.25;;;3.65;71.54
15817;BME280;8009;50.070;8.232;2023-01-19T13:41:23;99083.19;;;4.11;71.84
15817;BME280;8009;50.070;8.232;2023-01-19T13:43:58;99086.34;;;3.89;72.66
15817;BME280;8009;50.070;8.232;2023-01-19T13:46:29;99088.28;;;4.01;71.07
15817;BME280;8009;50.070;8.232;2023-01-19T13:49:01;99082.63;;;3.91;69.47
15817;BME280;8009;50.070;8.232;2023-01-19T13:51:30;99085.47;;;4.17;69.39
15817;BME280;8009;50.070;8.232;2023-01-19T13:53:59;99089.13;;;4.16;70.01
15817;BME280;8009;50.070;8.232;2023-01-19T13:56:33;99087.59;;;3.69;69.35
15817;BME280;8009;50.070;8.232;2023-01-19T13:59:06;99091.41;;;4.08;69.83
15817;BME280;8009;50.070;8.232;2023-01-19T14:01:38;99099.69;;;4.32;68.31
15817;BME280;8009;50.070;8.232;2023-01-19T14:04:23;99093.00;;;4.25;68.89
15817;BME280;8009;50.070;8.232;2023-01-19T14:06:52;99101.63;;;4.01;68.26
15817;BME280;8009;50.070;8.232;2023-01-19T14:09:23;99103.09;;;4.20;68.12
15817;BME280;8009;50.070;8.232;2023-01-19T14:12:13;99105.59;;;4.23;68.15
15817;BME280;8009;50.070;8.232;2023-01-19T14:14:44;99105.28;;;4.27;69.29
15817;BME280;8009;50.070;8.232;2023-01-19T14:17:22;99107.19;;;4.39;68.52
15817;BME280;8009;50.070;8.232;2023-01-19T14:19:52;99111.97;;;4.34;68.45
15817;BME280;8009;50.070;8.232;2023-01-19T14:22:36;99107.41;;;4.36;67.39
15817;BME280;8009;50.070;8.232;2023-01-19T14:25:20;99106.78;;;4.46;67.50
15817;BME280;8009;50.070;8.232;2023-01-19T14:27:51;99112.09;;;4.19;66.74
15817;BME280;8009;50.070;8.232;2023-01-19T14:30:51;99116.53;;;4.47;67.41
15817;BME280;8009;50.070;8.232;2023-01-19T14:33:40;99108.09;;;4.53;66.55
15817;BME280;8009;50.070;8.232;2023-01-19T14:36:22;99116.03;;;4.54;67.05
15817;BME280;8009;50.070;8.232;2023-01-19T14:38:53;99114.59;;;4.07;66.71
15817;BME280;8009;50.070;8.232;2023-01-19T14:41:26;99112.31;;;4.01;66.33
15817;BME280;8009;50.070;8.232;2023-01-19T14:43:59;99118.59;;;4.00;67.19
15817;BME280;8009;50.070;8.232;2023-01-19T14:46:28;99113.06;;;3.89;67.57
15817;BME280;8009;50.070;8.232;2023-01-19T14:49:00;99116.06;;;4.40;66.29
15817;BME280;8009;50.070;8.232;2023-01-19T14:51:30;99116.72;;;4.44;66.00
15817;BME280;8009;50.070;8.232;2023-01-19T14:54:00;99126.84;;;4.38;66.06
15817;BME280;8009;50.070;8.232;2023-01-19T14:56:32;99121.91;;;4.32;65.54
15817;BME280;8009;50.070;8.232;2023-01-19T14:59:08;99121.59;;;4.51;66.69
15817;BME280;8009;50.070;8.232;2023-01-19T15:01:37;99123.66;;;4.05;68.51
15817;BME280;8009;50.070;8.232;2023-01-19T15:04:05;99119.63;;;4.26;65.81
15817;BME280;8009;50.070;8.232;2023-01-19T15:06:38;99129.16;;;4.30;68.24
15817;BME280;8009;50.070;8.232;2023-01-19T15:09:11;99124.34;;;4.08;67.26
15817;BME280;8009;50.070;8.232;2023-01-19T15:11:40;99126.41;;;4.03;67.02
15817;BME280;8009;50.070;8.232;2023-01-19T15:14:14;99130.50;;;4.23;66.67
15817;BME280;8009;50.070;8.232;2023-01-19T15:16:44;99137.75;;;4.35;67.07
15817;BME280;8009;50.070;8.232;2023-01-19T15:19:13;99126.31;;;4.60;66.20
15817;BME280;8009;50.070;8.232;2023-01-19T15:21:43;99130.22;;;4.28;66.48
15817;BME280;8009;50.070;8.232;2023-01-19T15:24:12;99135.41;;;4.58;66.06
15817;BME280;8009;50.070;8.232;2023-01-19T15:26:41;99135.63;;;4.40;65.77
15817;BME280;8009;50.070;8.232;2023-01-19T15:29:17;99140.69;;;4.45;65.21
15817;BME280;8009;50.070;8.232;2023-01-19T15:31:47;99136.72;;;4.09;65.41
15817;BME280;8009;50.070;8.232;2023-01-19T15:36:53;99143.00;;;4.23;66.04
15817;BME280;8009;50.070;8.232;2023-01-19T15:39:26;99138.25;;;4.28;64.87
15817;BME280;8009;50.070;8.232;2023-01-19T15:41:54;99142.38;;;4.46;64.56
15817;BME280;8009;50.070;8.232;2023-01-19T15:44:25;99141.47;;;4.19;65.05
15817;BME280;8009;50.070;8.232;2023-01-19T15:46:54;99149.50;;;4.33;64.76
15817;BME280;8009;50.070;8.232;2023-01-19T15:51:58;99150.84;;;4.67;64.41
15817;BME280;8009;50.070;8.232;2023-01-19T15:54:27;99158.19;;;4.08;66.39
15817;BME280;8009;50.070;8.232;2023-01-19T15:56:56;99153.31;;;4.43;66.54
15817;BME280;8009;50.070;8.232;2023-01-19T15:59:27;99156.66;;;4.32;65.24
15817;BME280;8009;50.070;8.232;2023-01-19T16:01:57;99158.06;;;4.38;65.50
15817;BME280;8009;50.070;8.232;2023-01-19T16:04:25;99156.25;;;4.38;66.66
15817;BME280;8009;50.070;8.232;2023-01-19T16:06:54;99160.47;;;4.28;66.50
15817;BME280;8009;50.070;8.232;2023-01-19T16:09:22;99154.47;;;4.39;65.97
15817;BME280;8009;50.070;8.232;2023-01-19T16:11:53;99150.28;;;4.21;65.81
15817;BME280;8009;50.070;8.232;2023-01-19T16:14:23;99154.66;;;4.07;67.00
15817;BME280;8009;50.070;8.232;2023-01-19T16:16:54;99158.72;;;4.42;65.34
15817;BME280;8009;50.070;8.232;2023-01-19T16:19:24;99166.94;;;4.38;65.72
15817;BME280;8009;50.070;8.232;2023-01-19T16:21:52;99167.53;;;4.29;65.80
15817;BME280;8009;50.070;8.232;2023-01-19T16:24:21;99161.69;;;4.37;65.84
15817;BME280;8009;50.070;8.232;2023-01-19T16:26:50;99166.97;;;4.24;66.59
15817;BME280;8009;50.070;8.232;2023-01-19T16:29:18;99164.97;;;4.28;66.21
15817;BME280;8009;50.070;8.232;2023-01-19T16:31:47;99180.97;;;4.42;64.69
15817;BME280;8009;50.070;8.232;2023-01-19T16:34:18;99170.75;;;4.49;65.75
15817;BME280;8009;50.070;8.232;2023-01-19T16:36:48;99171.22;;;4.55;66.19
15817;BME280;8009;50.070;8.232;2023-01-19T16:39:17;99169.22;;;4.59;65.08
15817;BME280;8009;50.070;8.232;2023-01-19T16:41:46;99174.47;;;4.46;64.83
15817;BME280;8009;50.070;8.232;2023-01-19T16:44:15;99164.34;;;4.51;64.35
15817;BME280;8009;50.070;8.232;2023-01-19T16:46:45;99174.06;;;4.67;64.06
15817;BME280;8009;50.070;8.232;2023-01-19T16:49:15;99180.97;;;4.42;67.49
15817;BME280;8009;50.070;8.232;2023-01-19T16:51:47;99185.81;;;4.50;64.76
15817;BME280;8009;50.070;8.232;2023-01-19T16:54:19;99187.47;;;4.52;67.59
15817;BME280;8009;50.070;8.232;2023-01-19T16:56:48;99186.97;;;4.46;68.97
15817;BME280;8009;50.070;8.232;2023-01-19T16:59:19;99184.91;;;4.51;66.96
15817;BME280;8009;50.070;8.232;2023-01-19T17:01:49;99187.66;;;4.49;65.17
15817;BME280;8009;50.070;8.232;2023-01-19T17:04:19;99184.72;;;4.39;64.59
15817;BME280;8009;50.070;8.232;2023-01-19T17:06:51;99193.78;;;4.37;65.36
15817;BME280;8009;50.070;8.232;2023-01-19T17:09:20;99193.97;;;4.48;64.18
15817;BME280;8009;50.070;8.232;2023-01-19T17:11:48;99199.88;;;4.10;68.03
15817;BME280;8009;50.070;8.232;2023-01-19T17:14:18;99202.34;;;4.42;66.42
15817;BME280;8009;50.070;8.232;2023-01-19T17:16:47;99191.09;;;4.23;64.83
15817;BME280;8009;50.070;8.232;2023-01-19T17:19:17;99196.63;;;4.20;65.28
15817;BME280;8009;50.070;8.232;2023-01-19T17:21:47;99203.03;;;4.17;65.92
15817;BME280;8009;50.070;8.232;2023-01-19T17:24:18;99198.66;;;4.16;66.04
15817;BME280;8009;50.070;8.232;2023-01-19T17:26:49;99199.31;;;4.05;66.61
15817;BME280;8009;50.070;8.232;2023-01-19T17:29:17;99211.78;;;3.76;67.09
15817;BME280;8009;50.070;8.232;2023-01-19T17:31:48;99210.84;;;3.91;66.16
15817;BME280;8009;50.070;8.232;2023-01-19T17:34:16;99204.34;;;3.96;66.43
15817;BME280;8009;50.070;8.232;2023-01-19T17:36:45;99214.03;;;3.68;67.28
15817;BME280;8009;50.070;8.232;2023-01-19T17:39:19;99214.72;;;3.72;66.39
15817;BME280;8009;50.070;8.232;2023-01-19T17:41:47;99221.38;;;3.64;69.64
15817;BME280;8009;50.070;8.232;2023-01-19T17:44:18;99233.22;;;3.14;70.46
15817;BME280;8009;50.070;8.232;2023-01-19T17:46:46;99235.53;;;3.05;71.00
15817;BME280;8009;50.070;8.232;2023-01-19T17:49:15;99228.22;;;2.92;71.69
15817;BME280;8009;50.070;8.232;2023-01-19T17:51:47;99227.97;;;3.43;69.21
15817;BME280;8009;50.070;8.232;2023-01-19T17:54:20;99229.78;;;3.42;69.97
15817;BME280;8009;50.070;8.232;2023-01-19T17:56:48;99236.75;;;2.83;73.20
15817;BME280;8009;50.070;8.232;2023-01-19T17:59:17;99236.56;;;2.71;73.63
15817;BME280;8009;50.070;8.232;2023-01-19T18:01:45;99244.59;;;3.02;72.15
15817;BME280;8009;50.070;8.232;2023-01-19T18:04:13;99239.25;;;3.02;72.26
15817;BME280;8009;50.070;8.232;2023-01-19T18:06:42;99235.66;;;2.87;73.78
15817;BME280;8009;50.070;8.232;2023-01-19T18:09:11;99244.16;;;3.10;73.08
15817;BME280;8009;50.070;8.232;2023-01-19T18:11:44;99247.44;;;2.83;73.99
15817;BME280;8009;50.070;8.232;2023-01-19T18:14:13;99239.16;;;2.88;73.84
15817;BME280;8009;50.070;8.232;2023-01-19T18:16:41;99245.97;;;3.09;72.65
15817;BME280;8009;50.070;8.232;2023-01-19T18:19:09;99243.28;;;3.25;70.86
15817;BME280;8009;50.070;8.232;2023-01-19T18:21:38;99256.91;;;3.35;71.10
15817;BME280;8009;50.070;8.232;2023-01-19T18:24:06;99261.25;;;3.22;71.00
15817;BME280;8009;50.070;8.232;2023-01-19T18:26:35;99262.81;;;3.10;71.06
15817;BME280;8009;50.070;8.232;2023-01-19T18:29:06;99254.88;;;3.24;71.48
15817;BME280;8009;50.070;8.232;2023-01-19T18:31:35;99250.94;;;2.84;72.98
15817;BME280;8009;50.070;8.232;2023-01-19T18:34:03;99261.53;;;2.36;75.24
15817;BME280;8009;50.070;8.232;2023-01-19T18:36:33;99256.69;;;2.11;75.60
15817;BME280;8009;50.070;8.232;2023-01-19T18:39:02;99246.22;;;2.73;73.58
15817;BME280;8009;50.070;8.232;2023-01-19T18:41:35;99252.50;;;2.88;73.35
15817;BME280;8009;50.070;8.232;2023-01-19T18:44:11;99259.78;;;2.53;74.91
15817;BME280;8009;50.070;8.232;2023-01-19T18:46:41;99256.44;;;2.81;73.48
15817;BME280;8009;50.070;8.232;2023-01-19T18:49:10;99262.63;;;2.65;74.29
15817;BME280;8009;50.070;8.232;2023-01-19T18:51:39;99246.31;;;2.87;73.17
15817;BME280;8009;50.070;8.232;2023-01-19T18:54:08;99252.41;;;2.89;72.91
15817;BME280;8009;50.070;8.232;2023-01-19T18:56:38;99256.13;;;2.87;72.39
15817;BME280;8009;50.070;8.232;2023-01-19T18:59:09;99252.56;;;3.18;71.05
15817;BME280;8009;50.070;8.232;2023-01-19T19:01:37;99256.34;;;3.30;70.63
15817;BME280;8009;50.070;8.232;2023-01-19T19:04:07;99262.88;;;3.24;71.21
15817;BME280;8009;50.070;8.232;2023-01-19T19:06:35;99261.41;;;3.34;71.49
15817;BME280;8009;50.070;8.232;2023-01-19T19:09:03;99263.25;;;3.02;72.56
15817;BME280;8009;50.070;8.232;2023-01-19T19:11:33;99271.69;;;3.10;72.66
15817;BME280;8009;50.070;8.232;2023-01-19T19:14:02;99259.63;;;2.72;74.54
15817;BME280;8009;50.070;8.232;2023-01-19T19:16:36;99266.25;;;3.12;73.23
15817;BME280;8009;50.070;8.232;2023-01-19T19:19:05;99269.53;;;3.17;72.40
15817;BME280;8009;50.070;8.232;2023-01-19T19:21:36;99268.09;;;3.41;71.88
15817;BME280;8009;50.070;8.232;2023-01-19T19:24:05;99263.56;;;3.28;72.04